Aérodrome :
LOGIN :

S'inscrire | Disclaimer

   EN    FR    IT 

 










Légende :    VFR   VFR Marginal   IFR   IFR Intensif   IFR Très Intensif
Visi : 
Plafond : 
>= 8 km
>= 3000ft
5 à 8 km
1000 à 3000 ft
1500m à 5 km
500 à 1000 ft
800 à 1500m
200 à 500 ft
< 800m
< 200 ft
Symboles :   Orages  Brouillard  Fortes neiges  Fortes précipitations  Vent > 20 kt
SIGMETs :   Divers  Orages  Givrage  Turbulence  Onde Orograph.  Cendres Volcan.







- Altitude de l'aérodrome : 200 ft


EBBL - Klein Brogel AB

DERNIER METAR :
  • 171755Z 22008KT 9999 SCT020 07/05 Q1023 WHT BLU TEMPO WHT

METARs EXPIRÉS :
  • 171725Z 22008KT 9999 FEW022 06/05 Q1022 BLU BLU TEMPO WHT
  • 171722Z 22008KT 9999 FEW022 06/04 Q1022 BLU BLU TEMPO WHT
  • 171655Z 22006KT 9999 FEW025 07/04 Q1022 BLU BLU
  • 171654Z 22006KT 9999 FEW025 07/04 Q1022 BLU BLU
  • 171625Z 21005KT 9999 SCT026 07/04 Q1022 BLU BLU TEMPO WHT
  • 171623Z 22006KT 9999 SCT026 07/04 Q1022 BLU BLU TEMPO WHT
  • 171555Z 22007KT 9999 SCT024 07/04 Q1022 WHT WHT
  • 171525Z 24008KT 9999 SCT025 07/04 Q1021 BLU BLU TEMPO WHT

TAF TAF EBBL
Valide du 17 à 13h jusqu'au 17 à 22h UTC


171141Z 1713/1722 22010KT 9999 SCT020 BKN035
TEMPO 1713/1717 FEW025 SCT040
BECMG 1717/1719 VRB03KT 4000 BR FEW010
PROB30
TEMPO 1720/1722 3000 BR SKC
Pas de NOTAMs connus pour ce terrain.



MET'MAP, la Météo Aéronautique d'un coup d'oeil ! - Copyright ORBIFLY Décembre 2007 - Disclaimer

ORBIFLY MET'MAP TEAM :

Programmation & Développement : Alexandra Zaïnal
Conception & Développement : Baudouin d'Aumeries
Co-Programmation & Développement : Marc-Olivier Méhu
Soutien technique & logistique : Manuel Goepfert

Contact : metmap@orbifly.com




SOURCES & CREDITS :

   NOAA